sensor_id;sensor_type;location;lat;lon;timestamp;pressure;altitude;pressure_sealevel;temperature;humidity
24013;BME280;12220;50.194;18.948;2023-11-21T00:00:40;101040.92;;;9.79;88.41
24013;BME280;12220;50.194;18.948;2023-11-21T00:02:46;101041.79;;;9.80;88.28
24013;BME280;12220;50.194;18.948;2023-11-21T00:04:49;101042.79;;;9.79;88.12
24013;BME280;12220;50.194;18.948;2023-11-21T00:06:51;101044.63;;;9.78;88.14
24013;BME280;12220;50.194;18.948;2023-11-21T00:08:55;101050.09;;;9.78;88.22
24013;BME280;12220;50.194;18.948;2023-11-21T00:10:56;101048.26;;;9.79;88.24
24013;BME280;12220;50.194;18.948;2023-11-21T00:13:02;101051.77;;;9.81;88.29
24013;BME280;12220;50.194;18.948;2023-11-21T00:15:05;100850.35;;;8.63;88.13
24013;BME280;12220;50.194;18.948;2023-11-21T00:17:10;101051.47;;;9.85;88.27
24013;BME280;12220;50.194;18.948;2023-11-21T00:19:12;101055.17;;;9.84;88.29
24013;BME280;12220;50.194;18.948;2023-11-21T00:21:13;101060.54;;;9.86;88.20
24013;BME280;12220;50.194;18.948;2023-11-21T00:23:15;101060.39;;;9.89;88.21
24013;BME280;12220;50.194;18.948;2023-11-21T00:25:25;101057.46;;;9.92;88.18
24013;BME280;12220;50.194;18.948;2023-11-21T00:27:26;101051.19;;;9.90;88.04
24013;BME280;12220;50.194;18.948;2023-11-21T00:29:27;101057.55;;;9.90;87.94
24013;BME280;12220;50.194;18.948;2023-11-21T00:31:29;101053.14;;;9.88;87.92
24013;BME280;12220;50.194;18.948;2023-11-21T00:33:40;101055.09;;;9.86;88.03
24013;BME280;12220;50.194;18.948;2023-11-21T00:35:41;101057.91;;;9.84;88.08
24013;BME280;12220;50.194;18.948;2023-11-21T00:37:42;101061.64;;;9.83;88.11
24013;BME280;12220;50.194;18.948;2023-11-21T00:39:44;101061.03;;;9.78;88.18
24013;BME280;12220;50.194;18.948;2023-11-21T00:41:55;101058.39;;;9.76;88.00
24013;BME280;12220;50.194;18.948;2023-11-21T00:43:56;101068.46;;;9.76;88.08
24013;BME280;12220;50.194;18.948;2023-11-21T00:45:57;101072.16;;;9.75;88.15
24013;BME280;12220;50.194;18.948;2023-11-21T00:47:59;101063.96;;;9.75;88.15
24013;BME280;12220;50.194;18.948;2023-11-21T00:50:10;101074.03;;;9.74;88.13
24013;BME280;12220;50.194;18.948;2023-11-21T00:52:11;101071.30;;;9.74;88.15
24013;BME280;12220;50.194;18.948;2023-11-21T00:54:16;101070.30;;;9.75;88.14
24013;BME280;12220;50.194;18.948;2023-11-21T00:56:18;101070.30;;;9.75;88.13
24013;BME280;12220;50.194;18.948;2023-11-21T00:58:25;101069.52;;;9.73;88.11
24013;BME280;12220;50.194;18.948;2023-11-21T01:00:26;101065.02;;;9.72;88.06
24013;BME280;12220;50.194;18.948;2023-11-21T01:02:28;101063.29;;;9.71;88.05
24013;BME280;12220;50.194;18.948;2023-11-21T01:04:30;101063.29;;;9.71;87.93
24013;BME280;12220;50.194;18.948;2023-11-21T01:06:39;101064.34;;;9.69;87.87
24013;BME280;12220;50.194;18.948;2023-11-21T01:08:41;101064.63;;;9.64;87.81
24013;BME280;12220;50.194;18.948;2023-11-21T01:10:43;101063.83;;;9.62;87.77
24013;BME280;12220;50.194;18.948;2023-11-21T01:12:44;101061.29;;;9.59;87.65
24013;BME280;12220;50.194;18.948;2023-11-21T01:54:00;101079.91;;;9.22;86.96
24013;BME280;12220;50.194;18.948;2023-11-21T01:56:02;101080.01;;;9.20;86.91
24013;BME280;12220;50.194;18.948;2023-11-21T01:58:11;101089.16;;;9.19;86.73
24013;BME280;12220;50.194;18.948;2023-11-21T02:00:17;101087.48;;;9.17;86.65
24013;BME280;12220;50.194;18.948;2023-11-21T02:02:20;101084.05;;;9.13;86.66
24013;BME280;12220;50.194;18.948;2023-11-21T02:04:22;101086.88;;;9.12;86.73
24013;BME280;12220;50.194;18.948;2023-11-21T02:06:26;101082.38;;;9.11;86.78
24013;BME280;12220;50.194;18.948;2023-11-21T02:08:31;101076.92;;;9.11;86.79
24013;BME280;12220;50.194;18.948;2023-11-21T02:10:33;101083.35;;;9.10;86.87
24013;BME280;12220;50.194;18.948;2023-11-21T02:12:38;101081.43;;;9.12;86.86
24013;BME280;12220;50.194;18.948;2023-11-21T02:14:41;101093.22;;;9.12;86.86
24013;BME280;12220;50.194;18.948;2023-11-21T02:16:42;101088.63;;;9.13;86.77
24013;BME280;12220;50.194;18.948;2023-11-21T02:18:51;101091.37;;;9.13;86.75
24013;BME280;12220;50.194;18.948;2023-11-21T02:20:53;101083.16;;;9.13;86.72
24013;BME280;12220;50.194;18.948;2023-11-21T02:22:57;101082.30;;;9.12;86.74
24013;BME280;12220;50.194;18.948;2023-11-21T02:25:03;101088.63;;;9.13;86.70
24013;BME280;12220;50.194;18.948;2023-11-21T02:27:05;101084.25;;;9.10;86.68
24013;BME280;12220;50.194;18.948;2023-11-21T02:29:07;101085.12;;;9.11;86.54
24013;BME280;12220;50.194;18.948;2023-11-21T02:31:13;101087.13;;;9.07;86.59
24013;BME280;12220;50.194;18.948;2023-11-21T02:33:14;101088.13;;;9.06;86.65
24013;BME280;12220;50.194;18.948;2023-11-21T02:35:16;101081.76;;;9.05;86.66
24013;BME280;12220;50.194;18.948;2023-11-21T02:37:17;101080.11;;;9.03;86.71
24013;BME280;12220;50.194;18.948;2023-11-21T02:39:26;101079.20;;;9.02;86.73
24013;BME280;12220;50.194;18.948;2023-11-21T02:41:29;101083.71;;;9.03;86.75
24013;BME280;12220;50.194;18.948;2023-11-21T02:43:30;101079.20;;;9.02;86.80
24013;BME280;12220;50.194;18.948;2023-11-21T02:45:31;101082.93;;;9.01;86.80
24013;BME280;12220;50.194;18.948;2023-11-21T02:47:41;101088.30;;;9.03;86.78
24013;BME280;12220;50.194;18.948;2023-11-21T02:49:42;101086.63;;;9.00;86.78
24013;BME280;12220;50.194;18.948;2023-11-21T02:51:44;101095.79;;;8.99;86.78
24013;BME280;12220;50.194;18.948;2023-11-21T02:53:45;101088.64;;;8.97;86.75
24013;BME280;12220;50.194;18.948;2023-11-21T02:55:56;101102.20;;;8.98;86.82
24013;BME280;12220;50.194;18.948;2023-11-21T02:57:57;101096.74;;;8.98;86.81
24013;BME280;12220;50.194;18.948;2023-11-21T02:59:59;101105.02;;;8.97;86.80
24013;BME280;12220;50.194;18.948;2023-11-21T03:02:01;101108.56;;;8.99;86.85
24013;BME280;12220;50.194;18.948;2023-11-21T03:04:10;101108.48;;;9.00;86.94
24013;BME280;12220;50.194;18.948;2023-11-21T03:06:19;101114.81;;;9.01;86.89
24013;BME280;12220;50.194;18.948;2023-11-21T03:08:21;101116.67;;;9.00;86.88
24013;BME280;12220;50.194;18.948;2023-11-21T03:10:22;101116.59;;;9.02;86.86
24013;BME280;12220;50.194;18.948;2023-11-21T03:12:26;101114.72;;;9.02;86.81
24013;BME280;12220;50.194;18.948;2023-11-21T03:14:28;101114.81;;;9.01;86.80
24013;BME280;12220;50.194;18.948;2023-11-21T03:16:29;101157.55;;;9.02;86.80
24013;BME280;12220;50.194;18.948;2023-11-21T03:18:32;101113.77;;;9.03;86.82
24013;BME280;12220;50.194;18.948;2023-11-21T03:23:15;101120.19;;;9.02;86.74
24013;BME280;12220;50.194;18.948;2023-11-21T03:25:24;101115.62;;;9.03;86.68
24013;BME280;12220;50.194;18.948;2023-11-21T03:27:29;101120.19;;;9.02;86.77
24013;BME280;12220;50.194;18.948;2023-11-21T03:29:30;101119.13;;;9.05;86.80
24013;BME280;12220;50.194;18.948;2023-11-21T03:31:32;101115.45;;;9.06;86.80
24013;BME280;12220;50.194;18.948;2023-11-21T03:33:38;101121.78;;;9.06;86.71
24013;BME280;12220;50.194;18.948;2023-11-21T03:35:40;101122.55;;;9.08;86.74
24013;BME280;12220;50.194;18.948;2023-11-21T03:37:43;101120.73;;;9.09;86.77
24013;BME280;12220;50.194;18.948;2023-11-21T03:39:45;101121.50;;;9.11;86.78
24013;BME280;12220;50.194;18.948;2023-11-21T03:49:04;101134.89;;;9.16;86.70
24013;BME280;12220;50.194;18.948;2023-11-21T03:51:06;101124.05;;;9.14;86.67
24013;BME280;12220;50.194;18.948;2023-11-21T03:53:07;101126.70;;;9.16;86.67
24013;BME280;12220;50.194;18.948;2023-11-21T03:55:09;101122.13;;;9.16;86.65
24013;BME280;12220;50.194;18.948;2023-11-21T03:57:13;101123.01;;;9.17;86.61
24013;BME280;12220;50.194;18.948;2023-11-21T03:59:14;101126.60;;;9.17;86.64
24013;BME280;12220;50.194;18.948;2023-11-21T04:01:22;101131.11;;;9.18;86.69
24013;BME280;12220;50.194;18.948;2023-11-21T04:03:24;101126.54;;;9.19;86.67
24013;BME280;12220;50.194;18.948;2023-11-21T06:03:24;101202.02;;;8.88;87.84
24013;BME280;12220;50.194;18.948;2023-11-21T06:05:26;101202.02;;;8.88;87.85
24013;BME280;12220;50.194;18.948;2023-11-21T06:07:28;101203.71;;;8.90;87.93
24013;BME280;12220;50.194;18.948;2023-11-21T06:09:30;101204.44;;;8.94;87.92
24013;BME280;12220;50.194;18.948;2023-11-21T06:11:39;101205.22;;;8.96;87.87
24013;BME280;12220;50.194;18.948;2023-11-21T06:13:46;101205.91;;;9.00;87.79
24013;BME280;12220;50.194;18.948;2023-11-21T06:15:51;101207.59;;;9.02;87.77
24013;BME280;12220;50.194;18.948;2023-11-21T06:17:52;101218.35;;;9.05;87.72
24013;BME280;12220;50.194;18.948;2023-11-21T06:19:54;101218.18;;;9.08;87.66
24013;BME280;12220;50.194;18.948;2023-11-21T06:21:56;101222.68;;;9.10;87.62
24013;BME280;12220;50.194;18.948;2023-11-21T06:23:57;101217.13;;;9.11;87.64
24013;BME280;12220;50.194;18.948;2023-11-21T06:26:00;101223.31;;;9.15;87.59
24013;BME280;12220;50.194;18.948;2023-11-21T06:28:09;101224.09;;;9.17;87.52
24013;BME280;12220;50.194;18.948;2023-11-21T06:30:16;101220.41;;;9.18;87.43
24013;BME280;12220;50.194;18.948;2023-11-21T06:32:18;101222.18;;;9.19;87.34
24013;BME280;12220;50.194;18.948;2023-11-21T06:34:23;101208.52;;;9.19;87.30
24013;BME280;12220;50.194;18.948;2023-11-21T06:36:25;101212.21;;;9.18;87.04
24013;BME280;12220;50.194;18.948;2023-11-21T06:38:32;101230.52;;;9.16;86.99
24013;BME280;12220;50.194;18.948;2023-11-21T06:40:34;101219.77;;;9.13;87.13
24013;BME280;12220;50.194;18.948;2023-11-21T06:42:38;101211.56;;;9.13;87.31
24013;BME280;12220;50.194;18.948;2023-11-21T06:44:41;101225.23;;;9.13;87.17
24013;BME280;12220;50.194;18.948;2023-11-21T06:46:45;101225.13;;;9.14;87.21
24013;BME280;12220;50.194;18.948;2023-11-21T06:48:47;101233.34;;;9.14;87.18
24013;BME280;12220;50.194;18.948;2023-11-21T06:50:51;101230.61;;;9.14;87.14
24013;BME280;12220;50.194;18.948;2023-11-21T06:52:54;101232.47;;;9.14;87.13
24013;BME280;12220;50.194;18.948;2023-11-21T06:54:56;101224.36;;;9.12;87.08
24013;BME280;12220;50.194;18.948;2023-11-21T06:56:57;101227.09;;;9.12;87.07
24013;BME280;12220;50.194;18.948;2023-11-21T06:58:59;101234.33;;;9.13;87.05
24013;BME280;12220;50.194;18.948;2023-11-21T07:01:14;101228.05;;;9.11;86.89
24013;BME280;12220;50.194;18.948;2023-11-21T07:03:16;101237.30;;;9.08;86.91
24013;BME280;12220;50.194;18.948;2023-11-21T07:05:21;101240.12;;;9.07;86.83
24013;BME280;12220;50.194;18.948;2023-11-21T07:07:23;101239.33;;;9.05;86.81
24013;BME280;12220;50.194;18.948;2023-11-21T07:09:25;101245.92;;;9.01;86.88
24013;BME280;12220;50.194;18.948;2023-11-21T07:11:27;101245.15;;;8.99;86.96
24013;BME280;12220;50.194;18.948;2023-11-21T07:13:29;101237.99;;;8.96;87.00
24013;BME280;12220;50.194;18.948;2023-11-21T07:15:31;101244.32;;;8.97;87.05
24013;BME280;12220;50.194;18.948;2023-11-21T07:17:39;101248.84;;;8.98;87.10
24013;BME280;12220;50.194;18.948;2023-11-21T07:19:42;101249.79;;;8.97;87.14
24013;BME280;12220;50.194;18.948;2023-11-21T07:24:03;101247.79;;;9.00;87.22
24013;BME280;12220;50.194;18.948;2023-11-21T07:26:05;101250.43;;;9.02;87.22
24013;BME280;12220;50.194;18.948;2023-11-21T07:28:11;101247.62;;;9.03;87.22
24013;BME280;12220;50.194;18.948;2023-11-21T07:30:17;101248.57;;;9.02;87.16
24013;BME280;12220;50.194;18.948;2023-11-21T07:32:19;101254.94;;;9.03;87.11
24013;BME280;12220;50.194;18.948;2023-11-21T07:34:20;101245.92;;;9.01;87.08
24013;BME280;12220;50.194;18.948;2023-11-21T07:36:22;101255.03;;;9.01;86.99
24013;BME280;12220;50.194;18.948;2023-11-21T07:38:32;101245.06;;;9.00;87.05
24013;BME280;12220;50.194;18.948;2023-11-21T07:40:34;101252.44;;;8.98;87.08
24013;BME280;12220;50.194;18.948;2023-11-21T07:42:36;101258.89;;;8.97;87.19
24013;BME280;12220;50.194;18.948;2023-11-21T07:44:37;101260.54;;;9.00;87.23
24013;BME280;12220;50.194;18.948;2023-11-21T07:46:48;101260.54;;;9.00;87.22
24013;BME280;12220;50.194;18.948;2023-11-21T07:48:50;101093.40;;;7.77;87.02
24013;BME280;12220;50.194;18.948;2023-11-21T07:50:54;101266.10;;;8.98;87.16
24013;BME280;12220;50.194;18.948;2023-11-21T07:52:55;101260.63;;;8.98;87.21
24013;BME280;12220;50.194;18.948;2023-11-21T07:55:03;101256.94;;;8.99;87.27
24013;BME280;12220;50.194;18.948;2023-11-21T07:57:04;101068.77;;;7.78;87.15
24013;BME280;12220;50.194;18.948;2023-11-21T07:59:06;101263.23;;;9.01;87.45
24013;BME280;12220;50.194;18.948;2023-11-21T08:01:07;101263.05;;;9.04;87.45
24013;BME280;12220;50.194;18.948;2023-11-21T08:03:17;101264.79;;;9.05;87.42
24013;BME280;12220;50.194;18.948;2023-11-21T08:05:19;101267.44;;;9.07;87.39
24013;BME280;12220;50.194;18.948;2023-11-21T08:07:20;101261.01;;;9.08;87.34
24013;BME280;12220;50.194;18.948;2023-11-21T08:09:22;101264.48;;;9.12;87.33
24013;BME280;12220;50.194;18.948;2023-11-21T08:11:32;101264.48;;;9.12;87.30
24013;BME280;12220;50.194;18.948;2023-11-21T08:13:34;101270.90;;;9.11;87.17
24013;BME280;12220;50.194;18.948;2023-11-21T08:15:35;101275.49;;;9.10;87.17
24013;BME280;12220;50.194;18.948;2023-11-21T08:17:39;101280.95;;;9.10;87.11
24013;BME280;12220;50.194;18.948;2023-11-21T08:19:47;101271.85;;;9.10;87.08
24013;BME280;12220;50.194;18.948;2023-11-21T08:21:52;101275.55;;;9.08;87.12
24013;BME280;12220;50.194;18.948;2023-11-21T08:23:56;101064.84;;;7.84;87.02
24013;BME280;12220;50.194;18.948;2023-11-21T08:25:58;101273.63;;;9.11;87.25
24013;BME280;12220;50.194;18.948;2023-11-21T08:28:02;101282.70;;;9.11;87.21
24013;BME280;12220;50.194;18.948;2023-11-21T08:30:06;101284.38;;;9.14;87.22
24013;BME280;12220;50.194;18.948;2023-11-21T08:32:08;101284.30;;;9.15;87.26
24013;BME280;12220;50.194;18.948;2023-11-21T08:34:10;101283.33;;;9.16;87.06
24013;BME280;12220;50.194;18.948;2023-11-21T08:36:20;101292.41;;;9.17;87.07
24013;BME280;12220;50.194;18.948;2023-11-21T08:38:23;101283.25;;;9.18;87.01
24013;BME280;12220;50.194;18.948;2023-11-21T08:40:30;101282.20;;;9.20;87.13
24013;BME280;12220;50.194;18.948;2023-11-21T08:42:31;101049.69;;;7.78;86.88
24013;BME280;12220;50.194;18.948;2023-11-21T08:44:34;101292.05;;;9.23;87.04
24013;BME280;12220;50.194;18.948;2023-11-21T08:46:36;101287.49;;;9.23;87.06
24013;BME280;12220;50.194;18.948;2023-11-21T08:48:41;101291.98;;;9.24;87.03
24013;BME280;12220;50.194;18.948;2023-11-21T08:50:42;101295.52;;;9.27;87.02
24013;BME280;12220;50.194;18.948;2023-11-21T09:07:25;101299.29;;;9.24;86.66
24013;BME280;12220;50.194;18.948;2023-11-21T09:09:30;101311.10;;;9.24;86.71
24013;BME280;12220;50.194;18.948;2023-11-21T09:11:41;101311.83;;;9.28;86.79
24013;BME280;12220;50.194;18.948;2023-11-21T09:13:45;101307.32;;;9.27;86.78
24013;BME280;12220;50.194;18.948;2023-11-21T09:15:48;101303.54;;;9.30;86.85
24013;BME280;12220;50.194;18.948;2023-11-21T09:17:51;101306.19;;;9.31;86.88
24013;BME280;12220;50.194;18.948;2023-11-21T09:19:56;101302.31;;;9.35;86.87
24013;BME280;12220;50.194;18.948;2023-11-21T09:21:58;101308.56;;;9.37;86.87
24013;BME280;12220;50.194;18.948;2023-11-21T09:23:59;101302.05;;;9.40;86.79
24013;BME280;12220;50.194;18.948;2023-11-21T09:26:02;101306.56;;;9.41;86.81
24013;BME280;12220;50.194;18.948;2023-11-21T09:28:11;101301.79;;;9.45;86.91
24013;BME280;12220;50.194;18.948;2023-11-21T09:30:13;101295.27;;;9.47;86.90
24013;BME280;12220;50.194;18.948;2023-11-21T09:32:15;101298.65;;;9.52;86.93
24013;BME280;12220;50.194;18.948;2023-11-21T09:34:19;101291.14;;;9.56;86.92
24013;BME280;12220;50.194;18.948;2023-11-21T09:36:25;101298.28;;;9.58;86.73
24013;BME280;12220;50.194;18.948;2023-11-21T09:38:31;101294.65;;;9.58;86.53
24013;BME280;12220;50.194;18.948;2023-11-21T09:40:32;101298.37;;;9.57;86.23
24013;BME280;12220;50.194;18.948;2023-11-21T09:42:43;101298.28;;;9.58;86.19
24013;BME280;12220;50.194;18.948;2023-11-21T09:44:58;101298.28;;;9.58;86.14
24013;BME280;12220;50.194;18.948;2023-11-21T09:47:05;101189.47;;;9.01;86.23
24013;BME280;12220;50.194;18.948;2023-11-21T09:49:13;101307.09;;;9.64;86.37
24013;BME280;12220;50.194;18.948;2023-11-21T09:51:15;101295.02;;;9.68;86.31
24013;BME280;12220;50.194;18.948;2023-11-21T09:53:18;101295.10;;;9.66;85.83
24013;BME280;12220;50.194;18.948;2023-11-21T09:55:22;101299.62;;;9.67;85.81
24013;BME280;12220;50.194;18.948;2023-11-21T09:57:25;101296.87;;;9.67;85.87
24013;BME280;12220;50.194;18.948;2023-11-21T09:59:31;101293.15;;;9.68;85.84
24013;BME280;12220;50.194;18.948;2023-11-21T10:01:36;101294.05;;;9.69;85.70
24013;BME280;12220;50.194;18.948;2023-11-21T10:03:38;101288.40;;;9.72;85.71
24013;BME280;12220;50.194;18.948;2023-11-21T10:05:42;101298.29;;;9.74;85.69
24013;BME280;12220;50.194;18.948;2023-11-21T10:07:45;101296.34;;;9.76;85.62
24013;BME280;12220;50.194;18.948;2023-11-21T10:24:22;101292.09;;;9.71;83.56
24013;BME280;12220;50.194;18.948;2023-11-21T10:26:26;101292.09;;;9.71;83.52
24013;BME280;12220;50.194;18.948;2023-11-21T10:28:35;101293.96;;;9.70;83.63
24013;BME280;12220;50.194;18.948;2023-11-21T10:30:39;101292.09;;;9.71;83.62
24013;BME280;12220;50.194;18.948;2023-11-21T10:32:42;101294.84;;;9.71;83.60
24013;BME280;12220;50.194;18.948;2023-11-21T10:36:56;101289.27;;;9.72;83.58
24013;BME280;12220;50.194;18.948;2023-11-21T10:39:00;101312.05;;;9.73;83.59
24013;BME280;12220;50.194;18.948;2023-11-21T10:41:04;101289.27;;;9.72;83.42
24013;BME280;12220;50.194;18.948;2023-11-21T10:43:11;101291.91;;;9.74;83.53
24013;BME280;12220;50.194;18.948;2023-11-21T10:45:16;101282.83;;;9.73;83.52
24013;BME280;12220;50.194;18.948;2023-11-21T10:47:17;101290.17;;;9.73;83.45
24013;BME280;12220;50.194;18.948;2023-11-21T10:49:20;101291.23;;;9.70;83.17
24013;BME280;12220;50.194;18.948;2023-11-21T10:51:22;101293.15;;;9.68;83.24
24013;BME280;12220;50.194;18.948;2023-11-21T10:53:28;101096.02;;;8.29;83.24
24013;BME280;12220;50.194;18.948;2023-11-21T10:55:31;101295.97;;;9.67;83.30
24013;BME280;12220;50.194;18.948;2023-11-21T10:57:34;101299.79;;;9.64;83.27
24013;BME280;12220;50.194;18.948;2023-11-21T10:59:36;101307.19;;;9.62;83.23
24013;BME280;12220;50.194;18.948;2023-11-21T11:01:42;101293.59;;;9.60;83.12
24013;BME280;12220;50.194;18.948;2023-11-21T11:03:44;101304.62;;;9.59;83.17
24013;BME280;12220;50.194;18.948;2023-11-21T11:05:46;101300.02;;;9.59;83.19
24013;BME280;12220;50.194;18.948;2023-11-21T11:08:00;101297.39;;;9.58;83.14
24013;BME280;12220;50.194;18.948;2023-11-21T11:10:04;101299.34;;;9.56;83.10
24013;BME280;12220;50.194;18.948;2023-11-21T11:12:19;101295.64;;;9.57;83.16
24013;BME280;12220;50.194;18.948;2023-11-21T11:14:21;101299.34;;;9.56;83.14
24013;BME280;12220;50.194;18.948;2023-11-21T11:16:30;101304.80;;;9.56;83.19
24013;BME280;12220;50.194;18.948;2023-11-21T11:18:32;101300.21;;;9.56;83.23
24013;BME280;12220;50.194;18.948;2023-11-21T11:20:36;101300.21;;;9.56;83.06
24013;BME280;12220;50.194;18.948;2023-11-21T11:27:46;101294.74;;;9.56;83.13
24013;BME280;12220;50.194;18.948;2023-11-21T11:34:50;101304.72;;;9.57;83.00
24013;BME280;12220;50.194;18.948;2023-11-21T11:37:07;101313.88;;;9.56;82.93
24013;BME280;12220;50.194;18.948;2023-11-21T15:07:19;101386.27;;;9.16;83.01
24013;BME280;12220;50.194;18.948;2023-11-21T15:38:59;101399.39;;;9.09;84.05
24013;BME280;12220;50.194;18.948;2023-11-21T15:41:01;101398.66;;;9.05;84.01
24013;BME280;12220;50.194;18.948;2023-11-21T15:43:02;101400.60;;;9.03;84.17
24013;BME280;12220;50.194;18.948;2023-11-21T15:45:08;101404.12;;;9.05;84.36
24013;BME280;12220;50.194;18.948;2023-11-21T15:47:14;101404.95;;;9.07;84.46
24013;BME280;12220;50.194;18.948;2023-11-21T15:49:16;101402.99;;;9.10;84.54
24013;BME280;12220;50.194;18.948;2023-11-21T15:51:22;101413.76;;;9.13;84.56
24013;BME280;12220;50.194;18.948;2023-11-21T15:53:24;101407.34;;;9.14;84.59
24013;BME280;12220;50.194;18.948;2023-11-21T15:55:29;101413.51;;;9.17;84.62
24013;BME280;12220;50.194;18.948;2023-11-21T15:57:30;101411.59;;;9.19;84.62
24013;BME280;12220;50.194;18.948;2023-11-21T16:24:19;101447.04;;;9.21;84.91
24013;BME280;12220;50.194;18.948;2023-11-21T16:26:22;101453.29;;;9.23;84.98
24013;BME280;12220;50.194;18.948;2023-11-21T16:28:23;101453.20;;;9.24;84.99
24013;BME280;12220;50.194;18.948;2023-11-21T16:30:26;101233.16;;;7.98;84.90
24013;BME280;12220;50.194;18.948;2023-11-21T16:38:15;101464.88;;;9.28;84.92
24013;BME280;12220;50.194;18.948;2023-11-21T16:40:17;101464.13;;;9.24;84.93
24013;BME280;12220;50.194;18.948;2023-11-21T16:42:20;101469.60;;;9.24;85.08
24013;BME280;12220;50.194;18.948;2023-11-21T16:44:23;101466.88;;;9.24;85.20
24013;BME280;12220;50.194;18.948;2023-11-21T16:46:30;101468.56;;;9.27;85.26
24013;BME280;12220;50.194;18.948;2023-11-21T16:48:31;101471.21;;;9.29;85.31
24013;BME280;12220;50.194;18.948;2023-11-21T16:50:34;101470.17;;;9.31;85.32
24013;BME280;12220;50.194;18.948;2023-11-21T17:02:26;101479.48;;;9.45;85.12
24013;BME280;12220;50.194;18.948;2023-11-21T17:04:28;101486.90;;;9.42;84.96
24013;BME280;12220;50.194;18.948;2023-11-21T17:06:32;101483.42;;;9.39;84.89
24013;BME280;12220;50.194;18.948;2023-11-21T18:12:10;101587.37;;;7.23;83.16
24013;BME280;12220;50.194;18.948;2023-11-21T18:14:12;101577.62;;;7.18;83.26
24013;BME280;12220;50.194;18.948;2023-11-21T18:36:06;101611.76;;;6.82;83.17
24013;BME280;12220;50.194;18.948;2023-11-21T18:38:08;101614.91;;;6.71;82.85
24013;BME280;12220;50.194;18.948;2023-11-21T18:40:16;101613.28;;;6.67;82.93
24013;BME280;12220;50.194;18.948;2023-11-21T18:42:18;101624.23;;;6.66;83.05
24013;BME280;12220;50.194;18.948;2023-11-21T18:44:22;101618.88;;;6.62;83.33
24013;BME280;12220;50.194;18.948;2023-11-21T18:46:24;101630.48;;;6.68;83.63
24013;BME280;12220;50.194;18.948;2023-11-21T18:48:31;101633.20;;;6.68;83.50
24013;BME280;12220;50.194;18.948;2023-11-21T18:50:32;101638.52;;;6.71;83.65
24013;BME280;12220;50.194;18.948;2023-11-21T18:52:39;101638.59;;;6.69;83.19
24013;BME280;12220;50.194;18.948;2023-11-21T18:54:41;101643.34;;;6.64;82.94
24013;BME280;12220;50.194;18.948;2023-11-21T18:56:47;101645.34;;;6.59;82.80
24013;BME280;12220;50.194;18.948;2023-11-21T18:58:50;101654.51;;;6.56;82.95
24013;BME280;12220;50.194;18.948;2023-11-21T19:00:51;101660.91;;;6.55;83.04
24013;BME280;12220;50.194;18.948;2023-11-21T19:02:53;101655.51;;;6.54;82.92
24013;BME280;12220;50.194;18.948;2023-11-21T19:05:01;101653.70;;;6.54;83.07
24013;BME280;12220;50.194;18.948;2023-11-21T19:07:07;101651.84;;;6.55;83.16
24013;BME280;12220;50.194;18.948;2023-11-21T19:09:08;101525.98;;;5.79;83.02
24013;BME280;12220;50.194;18.948;2023-11-21T19:11:13;101662.79;;;6.53;82.55
24013;BME280;12220;50.194;18.948;2023-11-21T19:13:16;101672.92;;;6.50;82.16
24013;BME280;12220;50.194;18.948;2023-11-21T19:15:20;101682.38;;;6.39;81.55
24013;BME280;12220;50.194;18.948;2023-11-21T19:17:23;101681.77;;;6.31;81.59
24013;BME280;12220;50.194;18.948;2023-11-21T19:19:26;101682.06;;;6.23;81.63
24013;BME280;12220;50.194;18.948;2023-11-21T19:21:31;101684.05;;;6.18;81.80
24013;BME280;12220;50.194;18.948;2023-11-21T19:23:32;101697.88;;;6.12;81.89
24013;BME280;12220;50.194;18.948;2023-11-21T19:25:33;101703.49;;;6.07;81.50
24013;BME280;12220;50.194;18.948;2023-11-21T19:27:35;101710.98;;;6.01;81.34
24013;BME280;12220;50.194;18.948;2023-11-21T19:29:46;101712.97;;;5.94;81.19
24013;BME280;12220;50.194;18.948;2023-11-21T19:31:48;101484.32;;;4.50;80.79
24013;BME280;12220;50.194;18.948;2023-11-21T19:33:50;101712.54;;;5.81;81.20
24013;BME280;12220;50.194;18.948;2023-11-21T19:35:54;101718.95;;;5.79;81.23
24013;BME280;12220;50.194;18.948;2023-11-21T19:38:01;101729.03;;;5.75;81.16
24013;BME280;12220;50.194;18.948;2023-11-21T19:40:02;101732.72;;;5.74;81.33
24013;BME280;12220;50.194;18.948;2023-11-21T19:42:05;101734.47;;;5.75;81.54
24013;BME280;12220;50.194;18.948;2023-11-21T19:44:06;101751.84;;;5.71;81.11
24013;BME280;12220;50.194;18.948;2023-11-21T19:46:16;101770.82;;;5.72;81.34
24013;BME280;12220;50.194;18.948;2023-11-21T19:48:20;101733.81;;;5.68;81.50
24013;BME280;12220;50.194;18.948;2023-11-21T19:50:26;101749.95;;;5.73;80.96
24013;BME280;12220;50.194;18.948;2023-11-21T19:52:27;101746.43;;;5.69;80.91
24013;BME280;12220;50.194;18.948;2023-11-21T19:54:31;101747.62;;;5.61;80.47
24013;BME280;12220;50.194;18.948;2023-11-21T19:56:32;101756.96;;;5.53;80.39
24013;BME280;12220;50.194;18.948;2023-11-21T19:58:36;101758.91;;;5.48;80.50
24013;BME280;12220;50.194;18.948;2023-11-21T20:00:38;101760.00;;;5.43;80.63
24013;BME280;12220;50.194;18.948;2023-11-21T20:02:46;101762.71;;;5.43;80.85
24013;BME280;12220;50.194;18.948;2023-11-21T20:04:48;101773.67;;;5.39;80.85
24013;BME280;12220;50.194;18.948;2023-11-21T20:06:49;101776.45;;;5.38;80.73
24013;BME280;12220;50.194;18.948;2023-11-21T20:08:51;101781.06;;;5.36;80.63
24013;BME280;12220;50.194;18.948;2023-11-21T20:11:05;101794.08;;;5.24;80.28
24013;BME280;12220;50.194;18.948;2023-11-21T20:13:06;101793.32;;;5.19;80.14
24013;BME280;12220;50.194;18.948;2023-11-21T20:15:08;101805.45;;;5.08;79.58
24013;BME280;12220;50.194;18.948;2023-11-21T20:17:11;101810.14;;;5.02;79.74
24013;BME280;12220;50.194;18.948;2023-11-21T20:19:16;101811.17;;;4.98;80.06